Time;durP1;ratioP1;P1;durP2;ratioP2;P2;SDS_P1;SDS_P2;PMS_P1;PMS_P2;Temp;Humidity;BMP_temperature;BMP_pressure;BME280_temperature;BME280_humidity;BME280_pressure;Samples;Min_cycle;Max_cycle;Signal;HPM_P1;HPM_P2
2023/03/02 00:00:40;;;;;;;;;;;;;;;23.13;36.98;95442.06;5052636;28;1540;-70
2023/03/02 00:03:05;;;;;;;;;;;;;;;23.13;37.16;95438.56;5029427;28;1977;-71
2023/03/02 00:05:31;;;;;;;;;;;;;;;23.15;37.28;95443.72;5033479;28;1444;-70
2023/03/02 00:07:58;;;;;;;;;;;;;;;23.13;37.50;95442.06;5033354;28;949;-71
2023/03/02 00:10:24;;;;;;;;;;;;;;;23.09;37.50;95438.19;5033400;28;1607;-70
2023/03/02 00:12:49;;;;;;;;;;;;;;;23.11;37.82;95446.03;5026562;28;1420;-71
2023/03/02 00:15:14;;;;;;;;;;;;;;;23.17;37.78;95430.94;5029246;28;1271;-73
2023/03/02 00:17:39;;;;;;;;;;;;;;;23.18;37.58;95424.56;5032766;28;1499;-70
2023/03/02 00:20:11;;;;;;;;;;;;;;;23.18;37.99;95435.28;5032994;28;1441;-71
2023/03/02 00:22:40;;;;;;;;;;;;;;;23.19;38.07;95434.25;5033158;28;1914;-71
2023/03/02 00:25:05;;;;;;;;;;;;;;;23.20;38.16;95425.19;5023085;28;1322;-71
2023/03/02 00:27:31;;;;;;;;;;;;;;;23.22;38.10;95420.44;5015699;28;1487;-72
2023/03/02 00:29:56;;;;;;;;;;;;;;;23.19;38.30;95436.91;5032595;28;1390;-73
2023/03/02 00:32:22;;;;;;;;;;;;;;;23.25;38.34;95423.53;5032588;28;1409;-72
2023/03/02 00:34:47;;;;;;;;;;;;;;;23.20;38.19;95427.88;5032771;28;1434;-72
2023/03/02 00:37:12;;;;;;;;;;;;;;;23.20;38.52;95414.50;5008360;28;1534;-71
2023/03/02 00:39:38;;;;;;;;;;;;;;;23.19;38.67;95407.47;5015123;28;1397;-71
2023/03/02 00:42:03;;;;;;;;;;;;;;;23.21;38.64;95403.56;5046270;28;1952;-72
2023/03/02 00:44:28;;;;;;;;;;;;;;;23.15;38.63;95404.41;5048186;28;1110;-72
2023/03/02 00:46:54;;;;;;;;;;;;;;;23.20;38.58;95395.75;5025066;28;1341;-72
2023/03/02 00:49:19;;;;;;;;;;;;;;;23.27;38.42;95391.19;5049233;28;1032;-72
2023/03/02 00:51:44;;;;;;;;;;;;;;;23.25;38.85;95394.09;5037665;28;1539;-72
2023/03/02 00:54:09;;;;;;;;;;;;;;;23.22;38.80;95390.97;5031464;28;1240;-72
2023/03/02 00:56:35;;;;;;;;;;;;;;;23.29;38.78;95389.94;5033611;28;1354;-70
2023/03/02 00:59:25;;;;;;;;;;;;;;;23.30;38.84;95386.22;5029989;28;1232;-68
2023/03/02 01:01:56;;;;;;;;;;;;;;;23.24;38.97;95388.94;5029970;22;3587;-70
2023/03/02 01:04:22;;;;;;;;;;;;;;;23.21;39.05;95374.09;5031310;28;1228;-71
2023/03/02 01:06:47;;;;;;;;;;;;;;;23.19;39.17;95378.03;5025923;28;1400;-70
2023/03/02 01:09:12;;;;;;;;;;;;;;;23.21;39.21;95373.28;5027385;28;1468;-73
2023/03/02 01:11:38;;;;;;;;;;;;;;;23.37;39.21;95371.97;5038987;28;1409;-72
2023/03/02 01:14:03;;;;;;;;;;;;;;;23.46;38.70;95371.50;5014446;28;1421;-72
2023/03/02 01:16:28;;;;;;;;;;;;;;;23.40;38.65;95366.22;5032038;28;1429;-71
2023/03/02 01:18:54;;;;;;;;;;;;;;;23.35;38.93;95369.50;5031677;28;1465;-71
2023/03/02 01:21:19;;;;;;;;;;;;;;;23.34;38.92;95367.88;5007177;28;1971;-71
2023/03/02 01:23:44;;;;;;;;;;;;;;;23.30;38.98;95366.66;5019487;28;1465;-71
2023/03/02 01:26:10;;;;;;;;;;;;;;;23.28;38.99;95358.00;5035433;28;1429;-71
2023/03/02 01:28:35;;;;;;;;;;;;;;;23.25;39.17;95370.00;5035910;28;1496;-70
2023/03/02 01:31:03;;;;;;;;;;;;;;;23.29;39.09;95365.84;5049591;28;1700;-75
2023/03/02 01:33:28;;;;;;;;;;;;;;;23.34;38.90;95367.88;5025571;28;1302;-74
2023/03/02 01:35:53;;;;;;;;;;;;;;;23.41;38.97;95365.16;5035754;28;1444;-76
2023/03/02 01:38:19;;;;;;;;;;;;;;;23.39;38.88;95357.31;5037219;28;1448;-74
2023/03/02 01:40:44;;;;;;;;;;;;;;;23.34;38.82;95357.19;5021222;28;1688;-76
2023/03/02 01:43:11;;;;;;;;;;;;;;;23.32;39.06;95352.03;5046426;28;1879;-73
2023/03/02 01:45:46;;;;;;;;;;;;;;;23.31;39.22;95355.75;5028780;28;1504;-73
2023/03/02 01:48:12;;;;;;;;;;;;;;;23.30;38.90;95358.63;5040634;28;1566;-71
2023/03/02 01:50:38;;;;;;;;;;;;;;;23.28;39.28;95352.66;5041190;28;1397;-72
2023/03/02 01:53:03;;;;;;;;;;;;;;;23.29;39.27;95351.63;5035940;28;936;-71
2023/03/02 01:55:30;;;;;;;;;;;;;;;23.22;39.38;95350.84;5025455;28;1487;-70
2023/03/02 01:57:57;;;;;;;;;;;;;;;23.22;39.65;95348.16;5044021;28;1268;-71
2023/03/02 02:00:23;;;;;;;;;;;;;;;23.21;39.48;95343.84;5035414;28;1414;-74
2023/03/02 02:02:50;;;;;;;;;;;;;;;23.22;39.38;95346.28;5041689;28;1904;-74
2023/03/02 02:05:20;;;;;;;;;;;;;;;23.25;39.11;95351.25;5033617;28;1285;-74
2023/03/02 02:07:46;;;;;;;;;;;;;;;23.25;39.29;95347.72;5023793;28;1286;-74
2023/03/02 02:10:12;;;;;;;;;;;;;;;23.29;39.47;95349.78;5034894;28;1393;-74
2023/03/02 02:12:37;;;;;;;;;;;;;;;23.33;39.07;95344.81;5036615;28;1492;-73
2023/03/02 02:15:03;;;;;;;;;;;;;;;23.34;39.20;95351.81;5057916;28;1487;-74
2023/03/02 02:17:28;;;;;;;;;;;;;;;23.27;39.31;95351.03;5030239;28;1409;-74
2023/03/02 02:19:54;;;;;;;;;;;;;;;23.29;39.18;95354.31;5029538;28;1424;-74
2023/03/02 02:22:36;;;;;;;;;;;;;;;23.34;39.10;95359.84;5017401;28;1903;-73
2023/03/02 02:25:05;;;;;;;;;;;;;;;23.34;39.02;95362.53;5035041;28;1614;-74
2023/03/02 02:27:32;;;;;;;;;;;;;;;23.33;39.16;95363.53;5034820;28;1369;-74
2023/03/02 02:29:59;;;;;;;;;;;;;;;23.25;39.14;95347.72;5040100;28;1295;-74
2023/03/02 02:32:27;;;;;;;;;;;;;;;23.27;39.08;95345.66;5020720;28;1472;-75
2023/03/02 02:34:56;;;;;;;;;;;;;;;23.33;39.01;95347.47;5034351;28;1477;-74
2023/03/02 02:37:25;;;;;;;;;;;;;;;23.30;39.26;95345.22;5035053;28;1402;-74
2023/03/02 02:39:51;;;;;;;;;;;;;;;23.31;39.19;95344.22;5031665;28;901;-72
2023/03/02 02:42:33;;;;;;;;;;;;;;;23.30;39.30;95351.41;5027235;28;1902;-74
2023/03/02 02:45:00;;;;;;;;;;;;;;;23.27;39.13;95345.66;5027259;28;1485;-74
2023/03/02 02:47:26;;;;;;;;;;;;;;;23.24;39.37;95351.44;5034742;28;1529;-72
2023/03/02 02:49:53;;;;;;;;;;;;;;;23.25;39.40;95347.72;5034397;28;1239;-74
2023/03/02 02:52:19;;;;;;;;;;;;;;;23.20;39.76;95343.03;5024425;28;1555;-68
2023/03/02 02:54:46;;;;;;;;;;;;;;;23.30;39.45;95350.59;5034122;28;1413;-70
2023/03/02 02:57:12;;;;;;;;;;;;;;;23.33;39.41;95344.81;5048069;28;1428;-70
2023/03/02 02:59:41;;;;;;;;;;;;;;;23.35;39.19;95343.56;5032787;28;1488;-71
2023/03/02 03:02:09;;;;;;;;;;;;;;;23.43;39.16;95339.81;5038447;28;1906;-70
2023/03/02 03:04:35;;;;;;;;;;;;;;;23.45;39.02;95343.09;5035901;28;1467;-71
2023/03/02 03:07:04;;;;;;;;;;;;;;;23.48;39.09;95331.13;5046496;28;1290;-71
2023/03/02 03:09:30;;;;;;;;;;;;;;;23.52;39.25;95329.66;5054114;28;885;-74
2023/03/02 03:12:15;;;;;;;;;;;;;;;23.56;39.19;95330.88;5042582;28;1417;-73
2023/03/02 03:14:40;;;;;;;;;;;;;;;23.56;39.24;95337.06;5028974;28;1362;-72
2023/03/02 03:17:12;;;;;;;;;;;;;;;23.55;39.06;95331.91;5031695;28;1417;-73
2023/03/02 03:19:40;;;;;;;;;;;;;;;23.52;39.06;95333.16;5017820;28;1422;-73
2023/03/02 03:22:05;;;;;;;;;;;;;;;23.51;39.24;95334.22;5033576;28;1910;-73
2023/03/02 03:24:31;;;;;;;;;;;;;;;23.52;39.26;95335.03;5043086;28;1417;-72
2023/03/02 03:26:56;;;;;;;;;;;;;;;23.50;39.30;95340.56;5028865;28;1377;-72
2023/03/02 03:29:24;;;;;;;;;;;;;;;23.44;39.22;95332.59;5034233;28;1333;-72
2023/03/02 03:31:50;;;;;;;;;;;;;;;23.40;39.13;95334.91;5033950;28;1311;-72
2023/03/02 03:34:15;;;;;;;;;;;;;;;23.32;39.59;95332.47;5022801;28;1441;-72
2023/03/02 03:36:42;;;;;;;;;;;;;;;23.37;39.36;95338.00;5046918;28;1468;-72
2023/03/02 03:39:07;;;;;;;;;;;;;;;23.35;39.40;95342.75;5028392;28;1459;-71
2023/03/02 03:41:33;;;;;;;;;;;;;;;23.27;39.26;95337.63;5033488;28;1948;-72
2023/03/02 03:43:58;;;;;;;;;;;;;;;23.29;39.71;95335.56;5016353;28;1441;-73
2023/03/02 03:46:23;;;;;;;;;;;;;;;23.30;39.61;95339.88;5015752;28;1485;-74
2023/03/02 03:48:49;;;;;;;;;;;;;;;23.24;39.77;95340.75;5023328;28;1051;-74
2023/03/02 03:51:14;;;;;;;;;;;;;;;23.24;39.69;95336.19;5019926;28;1358;-72
2023/03/02 03:53:40;;;;;;;;;;;;;;;23.25;39.86;95337.88;5051289;28;1412;-72
2023/03/02 03:56:05;;;;;;;;;;;;;;;23.32;39.45;95337.81;5033081;28;1452;-73
2023/03/02 03:58:31;;;;;;;;;;;;;;;23.41;39.48;95333.03;5033123;28;1489;-74
2023/03/02 04:00:57;;;;;;;;;;;;;;;23.44;39.26;95343.31;5007219;28;1459;-73
2023/03/02 04:03:24;;;;;;;;;;;;;;;23.46;39.31;95343.91;5011909;28;1906;-74
2023/03/02 04:05:49;;;;;;;;;;;;;;;23.46;39.09;95336.69;5013874;28;1543;-74
2023/03/02 04:08:14;;;;;;;;;;;;;;;23.48;39.23;95331.97;5013401;28;1503;-74
2023/03/02 04:10:40;;;;;;;;;;;;;;;23.29;39.13;95306.13;5015008;28;1405;-71
2023/03/02 04:13:05;;;;;;;;;;;;;;;23.40;39.36;95329.53;5006029;28;1322;-76
2023/03/02 04:15:30;;;;;;;;;;;;;;;23.37;39.40;95335.31;5030450;28;1373;-71
2023/03/02 04:17:56;;;;;;;;;;;;;;;23.30;39.65;95334.53;5028335;28;1461;-71
2023/03/02 04:20:22;;;;;;;;;;;;;;;23.20;39.93;95332.31;5010304;28;1448;-73
2023/03/02 04:22:48;;;;;;;;;;;;;;;23.19;39.82;95327.16;5005269;28;1975;-72
2023/03/02 04:25:18;;;;;;;;;;;;;;;23.18;40.25;95328.22;5025085;28;1349;-72
2023/03/02 04:27:44;;;;;;;;;;;;;;;23.35;40.00;95332.03;5013471;28;954;-75
2023/03/02 04:30:09;;;;;;;;;;;;;;;22.84;32.56;95335.53;5015736;28;1472;-73
2023/03/02 04:32:35;;;;;;;;;;;;;;;21.83;30.42;95335.88;5013018;28;1465;-72
2023/03/02 04:35:00;;;;;;;;;;;;;;;21.14;31.38;95327.13;5003591;28;1444;-73
2023/03/02 04:37:25;;;;;;;;;;;;;;;20.75;30.93;95335.81;5013048;28;1511;-73
2023/03/02 04:39:51;;;;;;;;;;;;;;;20.26;31.15;95332.25;5013014;28;949;-74
2023/03/02 04:42:17;;;;;;;;;;;;;;;19.92;31.11;95339.19;5012956;28;1906;-71
2023/03/02 04:44:43;;;;;;;;;;;;;;;19.76;31.16;95339.47;5022484;28;1291;-71
2023/03/02 04:47:09;;;;;;;;;;;;;;;19.56;31.18;95333.94;5002507;28;1445;-69
2023/03/02 04:49:34;;;;;;;;;;;;;;;19.42;31.17;95340.97;5029344;28;1476;-70
2023/03/02 04:52:00;;;;;;;;;;;;;;;19.35;31.50;95344.56;5031748;28;1441;-71
2023/03/02 04:54:25;;;;;;;;;;;;;;;19.24;31.55;95341.41;5014343;28;1469;-71
2023/03/02 04:56:51;;;;;;;;;;;;;;;19.15;31.56;95350.50;5005211;28;1417;-70
2023/03/02 04:59:18;;;;;;;;;;;;;;;19.04;31.34;95338.53;5007414;28;1311;-71
2023/03/02 05:01:44;;;;;;;;;;;;;;;18.96;31.62;95343.16;5019192;28;1969;-72
2023/03/02 05:04:10;;;;;;;;;;;;;;;19.01;32.16;95349.56;5048940;28;1338;-71
2023/03/02 05:06:35;;;;;;;;;;;;;;;18.90;31.49;95346.53;5023399;28;1413;-71
2023/03/02 05:09:00;;;;;;;;;;;;;;;18.66;31.35;95346.63;5025642;28;1413;-71
2023/03/02 05:11:26;;;;;;;;;;;;;;;18.36;31.69;95348.50;5040136;28;1504;-72
2023/03/02 05:13:53;;;;;;;;;;;;;;;18.36;32.34;95347.69;5036297;28;940;-70
2023/03/02 05:16:18;;;;;;;;;;;;;;;18.37;32.91;95349.31;5025101;28;1695;-70
2023/03/02 05:18:44;;;;;;;;;;;;;;;18.96;33.77;95353.78;5017663;28;1245;-70
2023/03/02 05:21:09;;;;;;;;;;;;;;;19.61;33.34;95349.31;5008644;28;1350;-70
2023/03/02 05:23:35;;;;;;;;;;;;;;;20.11;32.55;95342.19;5035811;28;1963;-70
2023/03/02 05:26:00;;;;;;;;;;;;;;;20.48;32.45;95351.66;5036232;28;780;-70
2023/03/02 05:28:26;;;;;;;;;;;;;;;20.78;32.01;95354.09;5035787;28;982;-71
2023/03/02 05:30:51;;;;;;;;;;;;;;;20.99;32.06;95353.16;5022185;28;1019;-70
2023/03/02 05:33:17;;;;;;;;;;;;;;;21.15;32.20;95350.13;5013037;28;1090;-71
2023/03/02 05:35:43;;;;;;;;;;;;;;;21.29;32.19;95357.16;5015965;28;898;-70
2023/03/02 05:38:08;;;;;;;;;;;;;;;21.41;32.08;95362.75;5014573;28;1207;-71
2023/03/02 05:40:34;;;;;;;;;;;;;;;21.52;32.04;95364.00;5015831;28;945;-70
2023/03/02 05:43:00;;;;;;;;;;;;;;;21.57;32.13;95366.88;5005777;28;1959;-71
2023/03/02 05:45:29;;;;;;;;;;;;;;;21.63;32.21;95363.41;5015771;28;790;-70
2023/03/02 05:47:55;;;;;;;;;;;;;;;21.68;32.13;95368.13;5015773;28;921;-70
2023/03/02 05:50:21;;;;;;;;;;;;;;;21.72;32.33;95369.38;5015676;28;927;-70
2023/03/02 05:52:46;;;;;;;;;;;;;;;21.74;32.16;95365.47;5016018;28;985;-69
2023/03/02 05:55:12;;;;;;;;;;;;;;;21.78;32.13;95366.72;5004435;28;1169;-70
2023/03/02 05:57:37;;;;;;;;;;;;;;;21.80;32.27;95374.53;5014390;28;1455;-70
2023/03/02 06:00:04;;;;;;;;;;;;;;;21.82;32.52;95369.78;5015584;28;882;-70
2023/03/02 06:02:30;;;;;;;;;;;;;;;21.85;32.49;95366.69;5015222;28;1951;-70
2023/03/02 06:04:55;;;;;;;;;;;;;;;21.87;32.40;95371.84;5008889;28;1012;-68
2023/03/02 06:07:20;;;;;;;;;;;;;;;21.91;32.21;95375.75;5012471;28;1110;-69
2023/03/02 06:09:46;;;;;;;;;;;;;;;21.91;32.34;95373.06;5015074;28;974;-70
2023/03/02 06:12:11;;;;;;;;;;;;;;;21.94;32.30;95380.69;5015227;28;878;-72
2023/03/02 06:14:36;;;;;;;;;;;;;;;21.97;32.51;95380.25;5015419;28;960;-70
2023/03/02 06:17:01;;;;;;;;;;;;;;;22.00;32.39;95388.72;5005393;28;1135;-70
2023/03/02 06:19:27;;;;;;;;;;;;;;;22.02;32.48;95391.16;5013813;28;1280;-70
2023/03/02 06:21:52;;;;;;;;;;;;;;;22.04;32.41;95383.78;5015313;28;1902;-70
2023/03/02 06:24:18;;;;;;;;;;;;;;;22.06;32.57;95384.41;4997600;28;1217;-70
2023/03/02 06:26:43;;;;;;;;;;;;;;;22.07;32.34;95378.03;5013882;28;1196;-69
2023/03/02 06:29:08;;;;;;;;;;;;;;;22.09;32.51;95392.00;4987514;28;1201;-70
2023/03/02 06:31:34;;;;;;;;;;;;;;;22.10;32.25;95390.97;5015051;28;882;-70
2023/03/02 06:33:59;;;;;;;;;;;;;;;22.12;32.51;95396.94;5013684;28;1288;-69
2023/03/02 06:36:25;;;;;;;;;;;;;;;22.14;32.47;95399.38;5013782;28;1462;-70
2023/03/02 06:38:50;;;;;;;;;;;;;;;22.16;32.39;95397.34;5009903;28;1040;-70
2023/03/02 06:41:16;;;;;;;;;;;;;;;22.17;32.33;95393.63;4991872;28;1953;-70
2023/03/02 06:43:41;;;;;;;;;;;;;;;22.18;32.55;95390.78;5014765;28;897;-70
2023/03/02 06:46:06;;;;;;;;;;;;;;;22.19;32.50;95389.75;5013745;28;1189;-70
2023/03/02 06:48:31;;;;;;;;;;;;;;;22.20;32.55;95393.28;5014699;28;822;-70
2023/03/02 06:50:57;;;;;;;;;;;;;;;22.20;32.60;95399.44;5004852;28;1091;-70
2023/03/02 06:53:22;;;;;;;;;;;;;;;22.23;32.57;95400.88;5014632;28;952;-69
2023/03/02 06:55:48;;;;;;;;;;;;;;;22.25;32.39;95396.13;5029825;28;1216;-69
2023/03/02 06:58:14;;;;;;;;;;;;;;;22.24;32.54;95394.50;5014728;28;956;-69
2023/03/02 07:00:39;;;;;;;;;;;;;;;22.25;32.48;95400.66;5014522;28;949;-74
2023/03/02 07:03:04;;;;;;;;;;;;;;;22.26;32.52;95396.97;4986709;28;1963;-69
2023/03/02 07:05:31;;;;;;;;;;;;;;;22.28;32.33;95395.72;5014342;28;979;-69
2023/03/02 07:07:57;;;;;;;;;;;;;;;22.30;32.52;95400.88;5014474;28;889;-69
2023/03/02 07:10:22;;;;;;;;;;;;;;;22.29;32.24;95399.22;5014348;28;918;-71
2023/03/02 07:12:47;;;;;;;;;;;;;;;22.30;32.57;95393.66;4991790;28;1184;-68
2023/03/02 07:15:13;;;;;;;;;;;;;;;22.31;32.33;95397.16;5009085;28;1139;-68
2023/03/02 07:17:39;;;;;;;;;;;;;;;22.30;32.35;95399.00;5014357;28;872;-70
2023/03/02 07:20:05;;;;;;;;;;;;;;;22.30;32.43;95398.19;5014345;28;870;-70
2023/03/02 07:22:30;;;;;;;;;;;;;;;22.30;32.32;95395.53;5013581;28;1979;-71
2023/03/02 07:24:56;;;;;;;;;;;;;;;22.31;32.57;95394.47;5002615;28;1172;-71
2023/03/02 07:27:21;;;;;;;;;;;;;;;22.32;32.40;95393.47;5014116;28;846;-70
2023/03/02 07:29:46;;;;;;;;;;;;;;;22.31;32.42;95392.63;5012822;28;1327;-71
2023/03/02 07:32:12;;;;;;;;;;;;;;;22.31;32.54;95397.16;4996486;28;1317;-71
2023/03/02 07:34:37;;;;;;;;;;;;;;;22.32;32.41;95396.16;5014346;28;886;-70
2023/03/02 07:37:02;;;;;;;;;;;;;;;22.31;32.49;95387.28;5019027;28;1179;-71
2023/03/02 07:39:27;;;;;;;;;;;;;;;22.31;32.40;95389.13;5013754;28;859;-71
2023/03/02 07:41:56;;;;;;;;;;;;;;;22.33;32.34;95389.75;5028965;28;1906;-71
2023/03/02 07:44:21;;;;;;;;;;;;;;;22.32;32.51;95398.81;5013852;28;966;-71
2023/03/02 07:46:46;;;;;;;;;;;;;;;22.33;32.36;95397.78;5009178;28;1012;-71
2023/03/02 07:49:12;;;;;;;;;;;;;;;22.33;32.53;95397.78;5007168;28;1386;-71
2023/03/02 07:51:37;;;;;;;;;;;;;;;22.33;32.44;95405.78;5013574;28;814;-71
2023/03/02 07:54:03;;;;;;;;;;;;;;;22.32;32.42;95404.97;5013497;28;885;-69
2023/03/02 07:56:29;;;;;;;;;;;;;;;22.32;32.42;95404.97;4995851;28;1399;-70
2023/03/02 07:58:54;;;;;;;;;;;;;;;22.33;32.67;95392.44;5003673;28;1058;-71
2023/03/02 08:01:20;;;;;;;;;;;;;;;22.34;32.38;95394.06;5013262;28;1971;-71
2023/03/02 08:03:45;;;;;;;;;;;;;;;22.34;32.30;95396.72;4995525;28;1428;-71
2023/03/02 08:06:11;;;;;;;;;;;;;;;22.34;32.39;95402.94;5013583;28;886;-71
2023/03/02 08:08:36;;;;;;;;;;;;;;;22.33;32.48;95393.25;5013493;28;830;-71
2023/03/02 08:11:06;;;;;;;;;;;;;;;22.35;32.39;95387.72;5003322;28;1071;-70
2023/03/02 08:13:31;;;;;;;;;;;;;;;22.35;32.41;95395.72;5013130;28;937;-71
2023/03/02 08:16:00;;;;;;;;;;;;;;;22.34;32.45;95394.06;5011794;28;1305;-71
2023/03/02 08:18:25;;;;;;;;;;;;;;;22.34;32.57;95391.38;5013055;28;776;-71
2023/03/02 08:20:52;;;;;;;;;;;;;;;22.34;32.55;95388.72;4990621;28;1205;-70
2023/03/02 08:23:18;;;;;;;;;;;;;;;22.35;32.49;95396.53;5023010;28;1902;-71
2023/03/02 08:25:43;;;;;;;;;;;;;;;22.34;32.47;95391.38;5013076;28;871;-71
2023/03/02 08:28:08;;;;;;;;;;;;;;;22.35;32.53;95385.03;4995364;28;1282;-71
2023/03/02 08:30:33;;;;;;;;;;;;;;;22.35;32.48;95390.38;4995478;28;1197;-71
2023/03/02 08:32:59;;;;;;;;;;;;;;;22.34;32.54;95389.56;5003175;28;1162;-75
2023/03/02 08:35:24;;;;;;;;;;;;;;;22.35;32.34;95385.03;4995003;28;1309;-70
2023/03/02 08:37:49;;;;;;;;;;;;;;;22.35;32.37;95391.19;5019584;28;810;-71
2023/03/02 08:40:15;;;;;;;;;;;;;;;22.35;32.52;95385.84;5032548;28;967;-71
2023/03/02 08:42:40;;;;;;;;;;;;;;;22.33;32.40;95387.91;5047772;28;1902;-71
2023/03/02 08:45:05;;;;;;;;;;;;;;;22.35;32.38;95383.19;5004788;28;1276;-71
2023/03/02 08:47:31;;;;;;;;;;;;;;;22.35;32.44;95383.19;5032558;28;867;-70
2023/03/02 08:49:56;;;;;;;;;;;;;;;22.34;32.32;95386.88;5047983;28;1365;-71
2023/03/02 08:52:22;;;;;;;;;;;;;;;22.35;32.48;95387.72;5014536;28;1294;-70
2023/03/02 08:54:47;;;;;;;;;;;;;;;22.34;32.37;95394.91;5027751;28;980;-71
2023/03/02 08:57:12;;;;;;;;;;;;;;;22.35;32.46;95388.53;5009543;28;1149;-70
2023/03/02 08:59:37;;;;;;;;;;;;;;;22.35;32.41;95385.03;5014610;28;1176;-74
2023/03/02 09:02:03;;;;;;;;;;;;;;;22.34;32.36;95378.88;5014335;28;1906;-72
2023/03/02 09:04:28;;;;;;;;;;;;;;;22.35;32.48;95380.50;5047629;28;1156;-70
2023/03/02 09:06:53;;;;;;;;;;;;;;;22.34;32.46;95383.38;5022736;28;1081;-71
2023/03/02 09:09:19;;;;;;;;;;;;;;;22.35;32.40;95379.69;5047161;28;1247;-70
2023/03/02 09:11:45;;;;;;;;;;;;;;;22.34;32.49;95380.69;5014450;28;1279;-70
2023/03/02 09:14:10;;;;;;;;;;;;;;;22.34;32.36;95386.88;5032264;28;829;-70
2023/03/02 09:16:35;;;;;;;;;;;;;;;22.34;32.27;95378.03;5032143;28;917;-70
2023/03/02 09:19:01;;;;;;;;;;;;;;;22.35;32.30;95385.03;5022168;28;1198;-70
2023/03/02 09:21:27;;;;;;;;;;;;;;;22.34;32.30;95378.88;5014374;28;1977;-70
2023/03/02 09:23:54;;;;;;;;;;;;;;;22.33;32.28;95382.56;5032368;28;863;-70
2023/03/02 09:26:20;;;;;;;;;;;;;;;22.32;32.45;95378.25;5014331;28;1188;-72
2023/03/02 09:28:45;;;;;;;;;;;;;;;22.33;32.37;95376.38;5028926;28;861;-72
2023/03/02 09:31:10;;;;;;;;;;;;;;;22.33;32.19;95381.75;5025362;28;1040;-71
2023/03/02 09:33:36;;;;;;;;;;;;;;;22.33;32.31;95381.75;5032023;28;969;-70
2023/03/02 09:36:08;;;;;;;;;;;;;;;22.32;32.48;95382.78;5031952;28;896;-71
2023/03/02 09:38:33;;;;;;;;;;;;;;;22.32;32.46;95380.09;5014205;28;1432;-70
2023/03/02 09:41:08;;;;;;;;;;;;;;;22.31;32.35;95378.44;5022229;28;1127;-70
2023/03/02 09:43:33;;;;;;;;;;;;;;;22.32;32.40;95380.09;5031673;28;1894;-70
2023/03/02 09:46:02;;;;;;;;;;;;;;;22.32;32.29;95375.56;5033150;28;893;-71
2023/03/02 09:48:36;;;;;;;;;;;;;;;22.32;32.49;95374.75;5035490;28;1022;-69
2023/03/02 09:51:13;;;;;;;;;;;;;;;22.31;32.34;95368.56;5050486;28;1350;-70
2023/03/02 09:53:50;;;;;;;;;;;;;;;22.32;32.55;95366.75;5040842;28;1218;-70
2023/03/02 09:56:16;;;;;;;;;;;;;;;22.31;32.30;95367.75;5017709;28;1403;-70
2023/03/02 09:58:47;;;;;;;;;;;;;;;22.32;32.53;95366.75;5035532;28;862;-70
2023/03/02 10:01:14;;;;;;;;;;;;;;;22.31;32.29;95367.75;5035448;28;866;-70
2023/03/02 10:03:59;;;;;;;;;;;;;;;22.31;32.54;95367.75;5025210;28;1965;-74
2023/03/02 10:06:25;;;;;;;;;;;;;;;22.32;32.38;95359.53;5017263;28;1329;-71
2023/03/02 10:08:51;;;;;;;;;;;;;;;22.33;32.60;95365.69;5035228;28;905;-70
2023/03/02 10:11:19;;;;;;;;;;;;;;;22.32;32.34;95361.41;5017336;28;1299;-71
2023/03/02 10:14:11;;;;;;;;;;;;;;;22.32;32.44;95362.22;5050463;28;1457;-70
2023/03/02 10:16:45;;;;;;;;;;;;;;;22.32;32.34;95367.56;5026777;28;1315;-70
2023/03/02 10:19:11;;;;;;;;;;;;;;;22.32;32.48;95374.75;5049879;28;1384;-70
2023/03/02 10:21:41;;;;;;;;;;;;;;;22.32;32.28;95359.53;5034890;28;1983;-71
2023/03/02 10:24:30;;;;;;;;;;;;;;;22.32;32.28;95364.06;5035151;28;810;-70
2023/03/02 10:27:04;;;;;;;;;;;;;;;22.33;32.47;95360.34;4997512;28;1515;-70
2023/03/02 10:29:29;;;;;;;;;;;;;;;22.33;32.44;95357.69;5034645;28;909;-70
2023/03/02 10:32:12;;;;;;;;;;;;;;;22.32;32.31;95358.72;5034816;28;838;-71
2023/03/02 10:34:37;;;;;;;;;;;;;;;22.32;32.47;95356.88;5034829;28;893;-70
2023/03/02 10:37:08;;;;;;;;;;;;;;;22.32;32.47;95354.19;5029922;28;1038;-74
2023/03/02 10:39:33;;;;;;;;;;;;;;;22.32;32.30;95353.38;5028989;28;1924;-70
2023/03/02 10:42:02;;;;;;;;;;;;;;;22.32;32.42;95350.69;5016769;28;1910;-70
2023/03/02 10:44:30;;;;;;;;;;;;;;;22.31;32.51;95346.38;5034699;28;881;-69
2023/03/02 10:46:56;;;;;;;;;;;;;;;22.32;32.48;95337.34;5034598;28;893;-70
2023/03/02 10:49:24;;;;;;;;;;;;;;;22.31;32.33;95336.50;5006749;28;1208;-70
2023/03/02 10:52:00;;;;;;;;;;;;;;;22.32;32.38;95337.34;5049960;28;1360;-70
2023/03/02 10:54:27;;;;;;;;;;;;;;;22.31;32.42;95335.69;5034433;28;873;-70
2023/03/02 10:56:54;;;;;;;;;;;;;;;22.30;32.49;95334.88;5034196;28;880;-70
2023/03/02 10:59:29;;;;;;;;;;;;;;;22.32;32.58;95326.66;5034546;28;799;-70
2023/03/02 11:02:01;;;;;;;;;;;;;;;22.31;32.38;95330.34;5024733;28;2009;-70
2023/03/02 11:04:27;;;;;;;;;;;;;;;22.30;32.54;95324.16;5016192;28;1349;-70
2023/03/02 11:06:53;;;;;;;;;;;;;;;22.30;32.39;95326.84;5034315;28;861;-69
2023/03/02 11:09:18;;;;;;;;;;;;;;;22.31;32.27;95324.97;5016424;28;1318;-69
2023/03/02 11:11:54;;;;;;;;;;;;;;;22.31;32.48;95319.63;5024726;28;1086;-70
2023/03/02 11:14:21;;;;;;;;;;;;;;;22.30;32.38;95318.00;5034257;28;1130;-71
2023/03/02 11:16:46;;;;;;;;;;;;;;;22.31;32.40;95319.63;5034324;28;873;-70
2023/03/02 11:19:33;;;;;;;;;;;;;;;22.31;32.44;95316.97;5016231;28;1270;-70
2023/03/02 11:22:01;;;;;;;;;;;;;;;22.29;32.40;95316.38;5016157;28;1910;-70
2023/03/02 11:24:40;;;;;;;;;;;;;;;22.30;32.40;95315.34;5024238;28;987;-70
2023/03/02 11:27:05;;;;;;;;;;;;;;;22.30;32.44;95313.47;5033758;28;893;-71
2023/03/02 11:29:44;;;;;;;;;;;;;;;22.29;32.40;95313.69;5033640;28;957;-71
2023/03/02 11:32:12;;;;;;;;;;;;;;;22.30;32.37;95307.31;5033969;28;918;-70
2023/03/02 11:34:40;;;;;;;;;;;;;;;22.32;32.34;95308.75;5039133;28;1184;-70
2023/03/02 11:37:18;;;;;;;;;;;;;;;22.30;32.37;95294.78;5048697;28;1192;-70
2023/03/02 11:39:46;;;;;;;;;;;;;;;22.30;32.49;95296.63;5033562;28;950;-70
2023/03/02 11:42:19;;;;;;;;;;;;;;;22.30;32.39;95300.13;5048812;28;1906;-70
2023/03/02 11:44:48;;;;;;;;;;;;;;;22.30;32.44;95301.97;5033149;28;1143;-70
2023/03/02 11:47:13;;;;;;;;;;;;;;;22.30;32.50;95291.28;5005656;28;1280;-69
2023/03/02 11:49:56;;;;;;;;;;;;;;;22.29;32.43;95293.13;5015708;28;1480;-69
2023/03/02 11:52:26;;;;;;;;;;;;;;;22.30;32.36;95286.75;5015543;28;1211;-70
2023/03/02 11:55:02;;;;;;;;;;;;;;;22.30;32.41;95293.94;5033367;28;834;-69
2023/03/02 11:57:48;;;;;;;;;;;;;;;22.29;32.37;95295.00;5023102;28;1393;-70
2023/03/02 12:00:25;;;;;;;;;;;;;;;22.30;32.43;95299.31;5033651;28;807;-70
2023/03/02 12:03:01;;;;;;;;;;;;;;;22.29;32.46;95298.47;5033163;28;1962;-70
2023/03/02 12:05:30;;;;;;;;;;;;;;;22.29;32.39;95297.66;5033126;28;1129;-69
2023/03/02 12:08:05;;;;;;;;;;;;;;;22.30;32.21;95293.94;5028299;28;1049;-70
2023/03/02 12:10:39;;;;;;;;;;;;;;;22.29;32.49;95290.47;5010187;28;1193;-70
2023/03/02 12:13:19;;;;;;;;;;;;;;;22.30;32.38;95301.97;5033078;28;956;-70
2023/03/02 12:15:45;;;;;;;;;;;;;;;22.29;32.37;95298.47;5015395;28;1165;-71
2023/03/02 12:18:19;;;;;;;;;;;;;;;22.28;32.26;95294.16;5032999;28;885;-71
2023/03/02 12:20:45;;;;;;;;;;;;;;;22.28;32.38;95287.97;5005234;28;1328;-70
2023/03/02 12:23:23;;;;;;;;;;;;;;;22.28;32.40;95294.16;5015234;28;1975;-71
2023/03/02 12:25:50;;;;;;;;;;;;;;;22.27;32.28;95289.84;5015147;28;1232;-71
2023/03/02 12:28:34;;;;;;;;;;;;;;;22.26;32.19;95296.22;5015179;28;1223;-68
2023/03/02 12:31:17;;;;;;;;;;;;;;;22.27;32.42;95291.69;5027717;28;1079;-70
2023/03/02 12:33:45;;;;;;;;;;;;;;;22.27;32.22;95286.34;5032431;28;1157;-70
2023/03/02 12:36:15;;;;;;;;;;;;;;;22.27;32.42;95281.00;5032592;28;865;-70
2023/03/02 12:38:44;;;;;;;;;;;;;;;22.26;32.38;95287.41;5032699;28;912;-70
2023/03/02 12:41:11;;;;;;;;;;;;;;;22.26;32.36;95290.06;5014882;28;1476;-70
2023/03/02 12:43:41;;;;;;;;;;;;;;;22.26;32.16;95290.88;5004848;28;1919;-73
2023/03/02 12:46:25;;;;;;;;;;;;;;;22.26;32.27;95290.06;5032554;28;826;-70
2023/03/02 12:49:00;;;;;;;;;;;;;;;22.25;32.32;95291.91;5032719;28;864;-69
2023/03/02 12:51:27;;;;;;;;;;;;;;;22.24;32.40;95292.94;5014664;28;1379;-70
2023/03/02 12:54:03;;;;;;;;;;;;;;;22.24;32.25;95287.59;5023910;28;964;-69
2023/03/02 12:56:28;;;;;;;;;;;;;;;22.25;32.32;95288.41;5014363;28;1248;-69
2023/03/02 12:58:54;;;;;;;;;;;;;;;22.25;32.34;95283.06;5014665;28;1369;-69
2023/03/02 13:01:23;;;;;;;;;;;;;;;22.23;32.20;95284.09;5032517;28;810;-70